sensor_id;sensor_type;location;lat;lon;timestamp;temperature;humidity
12426;DHT22;6277;49.824;9.562;2023-06-22T00:02:15;23.20;68.00
12426;DHT22;6277;49.824;9.562;2023-06-22T00:04:40;23.20;68.00
12426;DHT22;6277;49.824;9.562;2023-06-22T00:07:06;23.20;68.10
12426;DHT22;6277;49.824;9.562;2023-06-22T00:09:32;23.20;68.30
12426;DHT22;6277;49.824;9.562;2023-06-22T00:11:58;23.30;68.40
12426;DHT22;6277;49.824;9.562;2023-06-22T00:14:23;23.20;68.40
12426;DHT22;6277;49.824;9.562;2023-06-22T00:16:49;23.30;68.40
12426;DHT22;6277;49.824;9.562;2023-06-22T00:19:15;23.30;68.20
12426;DHT22;6277;49.824;9.562;2023-06-22T00:21:41;23.30;68.20
12426;DHT22;6277;49.824;9.562;2023-06-22T00:24:08;23.20;68.10
12426;DHT22;6277;49.824;9.562;2023-06-22T00:26:33;23.20;68.00
12426;DHT22;6277;49.824;9.562;2023-06-22T00:28:59;23.10;67.90
12426;DHT22;6277;49.824;9.562;2023-06-22T00:31:24;23.00;68.00
12426;DHT22;6277;49.824;9.562;2023-06-22T00:33:50;23.00;68.10
12426;DHT22;6277;49.824;9.562;2023-06-22T00:36:16;22.90;68.20
12426;DHT22;6277;49.824;9.562;2023-06-22T00:38:43;22.80;68.40
12426;DHT22;6277;49.824;9.562;2023-06-22T00:41:08;22.70;68.60
12426;DHT22;6277;49.824;9.562;2023-06-22T00:43:34;22.60;68.70
12426;DHT22;6277;49.824;9.562;2023-06-22T00:46:00;22.60;68.90
12426;DHT22;6277;49.824;9.562;2023-06-22T00:48:25;22.50;69.00
12426;DHT22;6277;49.824;9.562;2023-06-22T00:50:52;22.50;69.20
12426;DHT22;6277;49.824;9.562;2023-06-22T00:53:19;22.50;69.30
12426;DHT22;6277;49.824;9.562;2023-06-22T00:55:45;22.40;69.40
12426;DHT22;6277;49.824;9.562;2023-06-22T00:58:12;22.40;69.60
12426;DHT22;6277;49.824;9.562;2023-06-22T01:00:39;22.40;69.70
12426;DHT22;6277;49.824;9.562;2023-06-22T01:03:05;22.40;69.90
12426;DHT22;6277;49.824;9.562;2023-06-22T01:05:35;22.40;70.00
12426;DHT22;6277;49.824;9.562;2023-06-22T01:10:43;22.40;70.30
12426;DHT22;6277;49.824;9.562;2023-06-22T01:16:31;22.50;71.00
12426;DHT22;6277;49.824;9.562;2023-06-22T01:21:58;22.40;71.00
12426;DHT22;6277;49.824;9.562;2023-06-22T01:24:30;22.50;70.70
12426;DHT22;6277;49.824;9.562;2023-06-22T01:27:36;22.50;71.10
12426;DHT22;6277;49.824;9.562;2023-06-22T01:30:11;22.50;71.60
12426;DHT22;6277;49.824;9.562;2023-06-22T01:32:39;22.50;71.20
12426;DHT22;6277;49.824;9.562;2023-06-22T01:35:07;22.50;71.40
12426;DHT22;6277;49.824;9.562;2023-06-22T01:37:34;22.50;71.50
12426;DHT22;6277;49.824;9.562;2023-06-22T01:40:01;22.60;71.80
12426;DHT22;6277;49.824;9.562;2023-06-22T01:42:30;22.60;71.90
12426;DHT22;6277;49.824;9.562;2023-06-22T01:44:56;22.70;72.00
12426;DHT22;6277;49.824;9.562;2023-06-22T01:47:22;22.70;72.00
12426;DHT22;6277;49.824;9.562;2023-06-22T01:49:49;22.70;72.30
12426;DHT22;6277;49.824;9.562;2023-06-22T01:52:17;22.70;72.40
12426;DHT22;6277;49.824;9.562;2023-06-22T01:54:43;22.70;72.50
12426;DHT22;6277;49.824;9.562;2023-06-22T01:57:08;22.70;72.60
12426;DHT22;6277;49.824;9.562;2023-06-22T01:59:45;22.60;72.80
12426;DHT22;6277;49.824;9.562;2023-06-22T02:02:15;22.50;73.40
12426;DHT22;6277;49.824;9.562;2023-06-22T02:07:10;22.40;73.50
12426;DHT22;6277;49.824;9.562;2023-06-22T02:09:39;22.30;74.10
12426;DHT22;6277;49.824;9.562;2023-06-22T02:12:08;22.30;74.30
12426;DHT22;6277;49.824;9.562;2023-06-22T02:14:36;22.20;74.60
12426;DHT22;6277;49.824;9.562;2023-06-22T02:17:02;22.20;74.80
12426;DHT22;6277;49.824;9.562;2023-06-22T02:19:35;22.20;75.00
12426;DHT22;6277;49.824;9.562;2023-06-22T02:22:01;22.20;75.20
12426;DHT22;6277;49.824;9.562;2023-06-22T02:24:27;22.20;75.30
12426;DHT22;6277;49.824;9.562;2023-06-22T02:26:52;22.20;75.50
12426;DHT22;6277;49.824;9.562;2023-06-22T02:29:18;22.20;75.60
12426;DHT22;6277;49.824;9.562;2023-06-22T02:31:43;22.20;75.70
12426;DHT22;6277;49.824;9.562;2023-06-22T02:34:09;22.20;75.90
12426;DHT22;6277;49.824;9.562;2023-06-22T02:36:34;22.20;76.10
12426;DHT22;6277;49.824;9.562;2023-06-22T02:39:00;22.10;76.10
12426;DHT22;6277;49.824;9.562;2023-06-22T02:41:27;22.20;76.30
12426;DHT22;6277;49.824;9.562;2023-06-22T02:43:53;22.20;76.50
12426;DHT22;6277;49.824;9.562;2023-06-22T02:46:18;22.20;76.50
12426;DHT22;6277;49.824;9.562;2023-06-22T02:48:44;22.20;76.70
12426;DHT22;6277;49.824;9.562;2023-06-22T02:51:09;22.20;76.70
12426;DHT22;6277;49.824;9.562;2023-06-22T02:53:35;22.20;76.80
12426;DHT22;6277;49.824;9.562;2023-06-22T02:56:02;22.20;76.70
12426;DHT22;6277;49.824;9.562;2023-06-22T02:58:31;22.20;77.00
12426;DHT22;6277;49.824;9.562;2023-06-22T03:01:04;22.20;77.00
12426;DHT22;6277;49.824;9.562;2023-06-22T03:03:30;22.20;77.00
12426;DHT22;6277;49.824;9.562;2023-06-22T03:05:56;22.20;77.20
12426;DHT22;6277;49.824;9.562;2023-06-22T03:08:21;22.20;78.00
12426;DHT22;6277;49.824;9.562;2023-06-22T03:10:47;22.20;77.50
12426;DHT22;6277;49.824;9.562;2023-06-22T03:13:12;22.20;77.60
12426;DHT22;6277;49.824;9.562;2023-06-22T03:15:38;22.20;77.60
12426;DHT22;6277;49.824;9.562;2023-06-22T03:18:03;22.20;77.60
12426;DHT22;6277;49.824;9.562;2023-06-22T03:20:29;22.20;77.80
12426;DHT22;6277;49.824;9.562;2023-06-22T03:22:58;22.20;77.90
12426;DHT22;6277;49.824;9.562;2023-06-22T03:25:24;22.20;78.00
12426;DHT22;6277;49.824;9.562;2023-06-22T03:27:50;22.30;78.10
12426;DHT22;6277;49.824;9.562;2023-06-22T03:30:15;22.30;78.10
12426;DHT22;6277;49.824;9.562;2023-06-22T03:32:41;22.30;78.10
12426;DHT22;6277;49.824;9.562;2023-06-22T03:35:08;22.30;78.20
12426;DHT22;6277;49.824;9.562;2023-06-22T03:37:33;22.30;78.30
12426;DHT22;6277;49.824;9.562;2023-06-22T03:39:59;22.30;78.40
12426;DHT22;6277;49.824;9.562;2023-06-22T03:42:26;22.30;78.50
12426;DHT22;6277;49.824;9.562;2023-06-22T03:44:51;22.30;78.70
12426;DHT22;6277;49.824;9.562;2023-06-22T03:47:17;22.40;78.70
12426;DHT22;6277;49.824;9.562;2023-06-22T03:49:43;22.40;78.80
12426;DHT22;6277;49.824;9.562;2023-06-22T03:52:09;22.40;78.80
12426;DHT22;6277;49.824;9.562;2023-06-22T03:54:36;22.40;78.80
12426;DHT22;6277;49.824;9.562;2023-06-22T03:57:02;22.50;78.70
12426;DHT22;6277;49.824;9.562;2023-06-22T03:59:27;22.50;78.70
12426;DHT22;6277;49.824;9.562;2023-06-22T04:01:54;22.50;78.70
12426;DHT22;6277;49.824;9.562;2023-06-22T04:04:20;22.50;78.70
12426;DHT22;6277;49.824;9.562;2023-06-22T04:06:46;22.50;78.70
12426;DHT22;6277;49.824;9.562;2023-06-22T04:09:11;22.50;78.70
12426;DHT22;6277;49.824;9.562;2023-06-22T04:11:37;22.50;78.80
12426;DHT22;6277;49.824;9.562;2023-06-22T04:14:03;22.60;78.80
12426;DHT22;6277;49.824;9.562;2023-06-22T04:16:28;22.60;78.90
12426;DHT22;6277;49.824;9.562;2023-06-22T04:18:54;22.60;79.00
12426;DHT22;6277;49.824;9.562;2023-06-22T04:21:19;22.60;78.90
12426;DHT22;6277;49.824;9.562;2023-06-22T04:23:45;22.60;78.90
12426;DHT22;6277;49.824;9.562;2023-06-22T04:26:12;22.60;79.00
12426;DHT22;6277;49.824;9.562;2023-06-22T04:28:37;22.70;79.10
12426;DHT22;6277;49.824;9.562;2023-06-22T04:31:03;22.60;78.90
12426;DHT22;6277;49.824;9.562;2023-06-22T04:33:29;22.70;79.00
12426;DHT22;6277;49.824;9.562;2023-06-22T04:35:55;22.70;79.00
12426;DHT22;6277;49.824;9.562;2023-06-22T04:38:23;22.60;79.00
12426;DHT22;6277;49.824;9.562;2023-06-22T04:40:49;22.70;79.00
12426;DHT22;6277;49.824;9.562;2023-06-22T04:43:15;22.70;79.10
12426;DHT22;6277;49.824;9.562;2023-06-22T04:45:41;22.70;79.10
12426;DHT22;6277;49.824;9.562;2023-06-22T04:48:06;22.70;79.20
12426;DHT22;6277;49.824;9.562;2023-06-22T04:50:33;22.70;79.30
12426;DHT22;6277;49.824;9.562;2023-06-22T04:52:59;22.70;79.20
12426;DHT22;6277;49.824;9.562;2023-06-22T04:55:24;22.70;79.30
12426;DHT22;6277;49.824;9.562;2023-06-22T04:57:51;22.70;79.30
12426;DHT22;6277;49.824;9.562;2023-06-22T05:00:17;22.70;79.30
12426;DHT22;6277;49.824;9.562;2023-06-22T05:02:45;22.80;79.50
12426;DHT22;6277;49.824;9.562;2023-06-22T05:05:15;22.80;79.50
12426;DHT22;6277;49.824;9.562;2023-06-22T05:07:49;22.80;79.50
12426;DHT22;6277;49.824;9.562;2023-06-22T05:10:16;22.80;79.50
12426;DHT22;6277;49.824;9.562;2023-06-22T05:12:42;22.80;79.40
12426;DHT22;6277;49.824;9.562;2023-06-22T05:15:08;22.90;79.40
12426;DHT22;6277;49.824;9.562;2023-06-22T05:17:35;22.90;79.40
12426;DHT22;6277;49.824;9.562;2023-06-22T05:20:01;22.90;79.50
12426;DHT22;6277;49.824;9.562;2023-06-22T05:22:27;22.90;79.50
12426;DHT22;6277;49.824;9.562;2023-06-22T05:24:52;23.00;79.60
12426;DHT22;6277;49.824;9.562;2023-06-22T05:27:18;23.00;79.60
12426;DHT22;6277;49.824;9.562;2023-06-22T05:29:43;23.10;79.70
12426;DHT22;6277;49.824;9.562;2023-06-22T05:32:09;23.10;79.80
12426;DHT22;6277;49.824;9.562;2023-06-22T05:34:34;23.10;80.40
12426;DHT22;6277;49.824;9.562;2023-06-22T05:37:00;23.20;79.80
12426;DHT22;6277;49.824;9.562;2023-06-22T05:39:25;23.20;79.80
12426;DHT22;6277;49.824;9.562;2023-06-22T05:41:51;23.30;79.80
12426;DHT22;6277;49.824;9.562;2023-06-22T05:44:17;23.30;79.70
12426;DHT22;6277;49.824;9.562;2023-06-22T05:46:43;23.40;79.70
12426;DHT22;6277;49.824;9.562;2023-06-22T05:49:11;23.40;79.70
12426;DHT22;6277;49.824;9.562;2023-06-22T05:51:37;23.50;79.70
12426;DHT22;6277;49.824;9.562;2023-06-22T05:54:02;23.50;79.70
12426;DHT22;6277;49.824;9.562;2023-06-22T05:56:28;23.50;79.60
12426;DHT22;6277;49.824;9.562;2023-06-22T05:58:53;23.60;79.60
12426;DHT22;6277;49.824;9.562;2023-06-22T06:01:19;23.60;79.60
12426;DHT22;6277;49.824;9.562;2023-06-22T06:03:44;23.70;79.60
12426;DHT22;6277;49.824;9.562;2023-06-22T06:06:10;23.70;79.60
12426;DHT22;6277;49.824;9.562;2023-06-22T06:08:37;23.80;79.60
12426;DHT22;6277;49.824;9.562;2023-06-22T06:11:02;23.80;79.60
12426;DHT22;6277;49.824;9.562;2023-06-22T06:13:28;23.90;79.60
12426;DHT22;6277;49.824;9.562;2023-06-22T06:15:53;23.90;79.50
12426;DHT22;6277;49.824;9.562;2023-06-22T06:18:21;24.00;79.60
12426;DHT22;6277;49.824;9.562;2023-06-22T06:20:46;24.10;79.50
12426;DHT22;6277;49.824;9.562;2023-06-22T06:23:12;24.10;79.40
12426;DHT22;6277;49.824;9.562;2023-06-22T06:25:37;24.20;79.40
12426;DHT22;6277;49.824;9.562;2023-06-22T06:28:03;24.20;79.20
12426;DHT22;6277;49.824;9.562;2023-06-22T06:30:29;24.30;79.10
12426;DHT22;6277;49.824;9.562;2023-06-22T06:32:54;24.40;79.10
12426;DHT22;6277;49.824;9.562;2023-06-22T06:35:21;24.40;79.00
12426;DHT22;6277;49.824;9.562;2023-06-22T06:37:49;24.40;78.90
12426;DHT22;6277;49.824;9.562;2023-06-22T06:40:16;24.50;78.70
12426;DHT22;6277;49.824;9.562;2023-06-22T06:42:44;24.60;78.60
12426;DHT22;6277;49.824;9.562;2023-06-22T06:45:21;24.60;78.50
12426;DHT22;6277;49.824;9.562;2023-06-22T06:47:51;24.60;78.00
12426;DHT22;6277;49.824;9.562;2023-06-22T06:50:17;24.70;78.30
12426;DHT22;6277;49.824;9.562;2023-06-22T06:52:43;24.70;78.50
12426;DHT22;6277;49.824;9.562;2023-06-22T06:55:09;24.80;78.50
12426;DHT22;6277;49.824;9.562;2023-06-22T06:57:38;24.80;78.50
12426;DHT22;6277;49.824;9.562;2023-06-22T07:00:08;24.90;78.60
12426;DHT22;6277;49.824;9.562;2023-06-22T07:02:39;25.00;78.20
12426;DHT22;6277;49.824;9.562;2023-06-22T07:05:05;25.10;78.20
12426;DHT22;6277;49.824;9.562;2023-06-22T07:07:32;25.10;78.10
12426;DHT22;6277;49.824;9.562;2023-06-22T07:09:58;25.20;78.00
12426;DHT22;6277;49.824;9.562;2023-06-22T07:12:23;25.20;77.90
12426;DHT22;6277;49.824;9.562;2023-06-22T07:14:49;25.40;77.60
12426;DHT22;6277;49.824;9.562;2023-06-22T07:17:15;25.40;77.40
12426;DHT22;6277;49.824;9.562;2023-06-22T07:19:41;25.40;77.40
12426;DHT22;6277;49.824;9.562;2023-06-22T07:22:07;25.50;77.20
12426;DHT22;6277;49.824;9.562;2023-06-22T07:24:33;25.60;77.20
12426;DHT22;6277;49.824;9.562;2023-06-22T07:26:59;25.60;77.10
12426;DHT22;6277;49.824;9.562;2023-06-22T07:29:25;25.70;77.00
12426;DHT22;6277;49.824;9.562;2023-06-22T07:31:52;25.80;76.90
12426;DHT22;6277;49.824;9.562;2023-06-22T07:34:18;25.80;76.70
12426;DHT22;6277;49.824;9.562;2023-06-22T07:36:44;25.90;76.80
12426;DHT22;6277;49.824;9.562;2023-06-22T07:39:10;26.00;76.60
12426;DHT22;6277;49.824;9.562;2023-06-22T07:41:38;26.10;76.40
12426;DHT22;6277;49.824;9.562;2023-06-22T07:44:04;26.10;76.10
12426;DHT22;6277;49.824;9.562;2023-06-22T07:46:29;26.20;76.10
12426;DHT22;6277;49.824;9.562;2023-06-22T07:48:56;26.30;76.10
12426;DHT22;6277;49.824;9.562;2023-06-22T07:51:22;26.30;75.90
12426;DHT22;6277;49.824;9.562;2023-06-22T07:53:47;26.40;76.10
12426;DHT22;6277;49.824;9.562;2023-06-22T07:56:13;26.50;76.10
12426;DHT22;6277;49.824;9.562;2023-06-22T07:58:44;26.60;76.20
12426;DHT22;6277;49.824;9.562;2023-06-22T08:01:09;26.70;76.30
12426;DHT22;6277;49.824;9.562;2023-06-22T08:03:36;26.80;76.10
12426;DHT22;6277;49.824;9.562;2023-06-22T08:06:01;26.90;76.10
12426;DHT22;6277;49.824;9.562;2023-06-22T08:08:27;27.10;75.70
12426;DHT22;6277;49.824;9.562;2023-06-22T08:10:53;27.20;75.60
12426;DHT22;6277;49.824;9.562;2023-06-22T08:13:18;27.30;75.50
12426;DHT22;6277;49.824;9.562;2023-06-22T08:15:44;27.40;74.90
12426;DHT22;6277;49.824;9.562;2023-06-22T08:18:10;27.50;74.60
12426;DHT22;6277;49.824;9.562;2023-06-22T08:20:35;27.70;74.40
12426;DHT22;6277;49.824;9.562;2023-06-22T08:23:01;27.80;74.00
12426;DHT22;6277;49.824;9.562;2023-06-22T08:25:32;27.90;74.10
12426;DHT22;6277;49.824;9.562;2023-06-22T08:27:58;28.00;74.00
12426;DHT22;6277;49.824;9.562;2023-06-22T08:30:23;28.10;73.60
12426;DHT22;6277;49.824;9.562;2023-06-22T08:32:49;28.20;73.40
12426;DHT22;6277;49.824;9.562;2023-06-22T08:35:14;28.40;73.10
12426;DHT22;6277;49.824;9.562;2023-06-22T08:37:40;28.50;73.00
12426;DHT22;6277;49.824;9.562;2023-06-22T08:40:07;28.60;72.90
12426;DHT22;6277;49.824;9.562;2023-06-22T08:42:35;28.70;72.10
12426;DHT22;6277;49.824;9.562;2023-06-22T08:45:00;28.80;71.80
12426;DHT22;6277;49.824;9.562;2023-06-22T08:47:29;28.90;71.80
12426;DHT22;6277;49.824;9.562;2023-06-22T08:49:55;29.00;70.80
12426;DHT22;6277;49.824;9.562;2023-06-22T08:52:20;29.10;71.00
12426;DHT22;6277;49.824;9.562;2023-06-22T08:54:47;29.20;70.50
12426;DHT22;6277;49.824;9.562;2023-06-22T08:57:12;29.20;70.20
12426;DHT22;6277;49.824;9.562;2023-06-22T08:59:38;29.20;69.90
12426;DHT22;6277;49.824;9.562;2023-06-22T09:02:04;29.30;69.90
12426;DHT22;6277;49.824;9.562;2023-06-22T09:04:29;29.30;69.80
12426;DHT22;6277;49.824;9.562;2023-06-22T09:06:55;29.40;69.10
12426;DHT22;6277;49.824;9.562;2023-06-22T09:09:21;29.40;68.80
12426;DHT22;6277;49.824;9.562;2023-06-22T09:11:47;29.40;69.00
12426;DHT22;6277;49.824;9.562;2023-06-22T09:14:13;29.40;69.20
12426;DHT22;6277;49.824;9.562;2023-06-22T09:16:38;29.40;68.60
12426;DHT22;6277;49.824;9.562;2023-06-22T09:19:04;29.50;68.30
12426;DHT22;6277;49.824;9.562;2023-06-22T09:21:29;29.50;68.00
12426;DHT22;6277;49.824;9.562;2023-06-22T09:23:55;29.50;67.90
12426;DHT22;6277;49.824;9.562;2023-06-22T09:26:21;29.50;67.40
12426;DHT22;6277;49.824;9.562;2023-06-22T09:28:47;29.50;67.40
12426;DHT22;6277;49.824;9.562;2023-06-22T09:31:13;29.50;67.50
12426;DHT22;6277;49.824;9.562;2023-06-22T09:33:40;29.50;67.70
12426;DHT22;6277;49.824;9.562;2023-06-22T09:36:06;29.60;67.10
12426;DHT22;6277;49.824;9.562;2023-06-22T09:38:35;29.60;67.20
12426;DHT22;6277;49.824;9.562;2023-06-22T09:41:01;29.70;67.10
12426;DHT22;6277;49.824;9.562;2023-06-22T09:43:27;29.70;67.20
12426;DHT22;6277;49.824;9.562;2023-06-22T09:45:53;29.70;66.30
12426;DHT22;6277;49.824;9.562;2023-06-22T09:48:18;29.80;66.20
12426;DHT22;6277;49.824;9.562;2023-06-22T09:50:44;29.80;66.00
12426;DHT22;6277;49.824;9.562;2023-06-22T09:53:09;29.90;66.00
12426;DHT22;6277;49.824;9.562;2023-06-22T09:55:34;29.90;65.90
12426;DHT22;6277;49.824;9.562;2023-06-22T09:58:00;30.10;65.90
12426;DHT22;6277;49.824;9.562;2023-06-22T10:00:26;30.10;65.80
12426;DHT22;6277;49.824;9.562;2023-06-22T10:02:52;30.20;65.50
12426;DHT22;6277;49.824;9.562;2023-06-22T10:05:17;30.30;65.30
12426;DHT22;6277;49.824;9.562;2023-06-22T10:07:43;30.40;65.00
12426;DHT22;6277;49.824;9.562;2023-06-22T10:10:11;30.40;64.20
12426;DHT22;6277;49.824;9.562;2023-06-22T10:12:40;30.50;63.90
12426;DHT22;6277;49.824;9.562;2023-06-22T10:15:06;30.50;64.40
12426;DHT22;6277;49.824;9.562;2023-06-22T10:17:32;30.60;64.10
12426;DHT22;6277;49.824;9.562;2023-06-22T10:19:57;30.60;63.70
12426;DHT22;6277;49.824;9.562;2023-06-22T10:22:23;30.70;63.50
12426;DHT22;6277;49.824;9.562;2023-06-22T10:24:48;30.80;63.40
12426;DHT22;6277;49.824;9.562;2023-06-22T10:27:14;30.90;63.40
12426;DHT22;6277;49.824;9.562;2023-06-22T10:29:41;30.90;63.30
12426;DHT22;6277;49.824;9.562;2023-06-22T10:32:07;31.00;63.20
12426;DHT22;6277;49.824;9.562;2023-06-22T10:34:33;31.10;63.10
12426;DHT22;6277;49.824;9.562;2023-06-22T10:36:59;31.20;63.20
12426;DHT22;6277;49.824;9.562;2023-06-22T10:39:24;31.30;63.40
12426;DHT22;6277;49.824;9.562;2023-06-22T10:41:50;31.50;62.80
12426;DHT22;6277;49.824;9.562;2023-06-22T10:44:15;31.60;62.20
12426;DHT22;6277;49.824;9.562;2023-06-22T10:46:42;31.60;61.70
12426;DHT22;6277;49.824;9.562;2023-06-22T10:49:08;31.70;61.60
12426;DHT22;6277;49.824;9.562;2023-06-22T10:51:33;31.70;60.90
12426;DHT22;6277;49.824;9.562;2023-06-22T10:53:59;31.80;61.20
12426;DHT22;6277;49.824;9.562;2023-06-22T10:56:24;31.90;60.40
12426;DHT22;6277;49.824;9.562;2023-06-22T10:58:50;31.90;60.00
12426;DHT22;6277;49.824;9.562;2023-06-22T11:01:15;32.00;59.80
12426;DHT22;6277;49.824;9.562;2023-06-22T11:03:41;32.00;59.80
12426;DHT22;6277;49.824;9.562;2023-06-22T11:06:07;32.00;60.00
12426;DHT22;6277;49.824;9.562;2023-06-22T11:08:32;32.10;59.90
12426;DHT22;6277;49.824;9.562;2023-06-22T11:10:58;32.20;59.40
12426;DHT22;6277;49.824;9.562;2023-06-22T11:13:23;32.30;59.20
12426;DHT22;6277;49.824;9.562;2023-06-22T11:15:50;32.40;59.30
12426;DHT22;6277;49.824;9.562;2023-06-22T11:18:15;32.50;59.20
12426;DHT22;6277;49.824;9.562;2023-06-22T11:20:42;32.70;59.10
12426;DHT22;6277;49.824;9.562;2023-06-22T11:23:07;32.80;58.60
12426;DHT22;6277;49.824;9.562;2023-06-22T11:25:33;33.00;59.00
12426;DHT22;6277;49.824;9.562;2023-06-22T11:28:03;33.20;58.80
12426;DHT22;6277;49.824;9.562;2023-06-22T11:30:29;33.40;58.60
12426;DHT22;6277;49.824;9.562;2023-06-22T11:32:56;33.70;58.50
12426;DHT22;6277;49.824;9.562;2023-06-22T11:35:23;33.90;58.40
12426;DHT22;6277;49.824;9.562;2023-06-22T11:37:48;34.10;57.80
12426;DHT22;6277;49.824;9.562;2023-06-22T11:40:14;34.20;57.30
12426;DHT22;6277;49.824;9.562;2023-06-22T11:42:39;34.40;57.10
12426;DHT22;6277;49.824;9.562;2023-06-22T11:45:06;34.40;56.80
12426;DHT22;6277;49.824;9.562;2023-06-22T11:47:32;34.60;56.50
12426;DHT22;6277;49.824;9.562;2023-06-22T11:49:57;34.70;55.90
12426;DHT22;6277;49.824;9.562;2023-06-22T11:52:23;34.90;55.70
12426;DHT22;6277;49.824;9.562;2023-06-22T11:54:48;34.90;55.30
12426;DHT22;6277;49.824;9.562;2023-06-22T11:57:14;35.10;54.70
12426;DHT22;6277;49.824;9.562;2023-06-22T11:59:39;35.20;54.20
12426;DHT22;6277;49.824;9.562;2023-06-22T12:02:05;35.20;54.10
12426;DHT22;6277;49.824;9.562;2023-06-22T12:04:32;35.30;54.10
12426;DHT22;6277;49.824;9.562;2023-06-22T12:06:58;35.30;54.50
12426;DHT22;6277;49.824;9.562;2023-06-22T12:09:24;35.40;54.30
12426;DHT22;6277;49.824;9.562;2023-06-22T12:11:49;35.60;53.90
12426;DHT22;6277;49.824;9.562;2023-06-22T12:14:15;35.80;53.80
12426;DHT22;6277;49.824;9.562;2023-06-22T12:16:40;35.80;53.10
12426;DHT22;6277;49.824;9.562;2023-06-22T12:19:06;35.90;52.70
12426;DHT22;6277;49.824;9.562;2023-06-22T12:21:31;36.00;52.40
12426;DHT22;6277;49.824;9.562;2023-06-22T12:23:57;36.00;52.10
12426;DHT22;6277;49.824;9.562;2023-06-22T12:26:22;36.10;52.00
12426;DHT22;6277;49.824;9.562;2023-06-22T12:28:48;36.10;51.70
12426;DHT22;6277;49.824;9.562;2023-06-22T12:31:14;36.10;51.50
12426;DHT22;6277;49.824;9.562;2023-06-22T12:33:39;36.20;51.40
12426;DHT22;6277;49.824;9.562;2023-06-22T12:36:05;36.20;51.30
12426;DHT22;6277;49.824;9.562;2023-06-22T12:38:31;36.20;52.00
12426;DHT22;6277;49.824;9.562;2023-06-22T12:40:56;36.30;51.20
12426;DHT22;6277;49.824;9.562;2023-06-22T12:43:22;36.40;50.90
12426;DHT22;6277;49.824;9.562;2023-06-22T12:45:47;36.50;50.60
12426;DHT22;6277;49.824;9.562;2023-06-22T12:48:13;36.60;50.60
12426;DHT22;6277;49.824;9.562;2023-06-22T12:50:39;36.70;50.60
12426;DHT22;6277;49.824;9.562;2023-06-22T12:53:04;36.70;50.60
12426;DHT22;6277;49.824;9.562;2023-06-22T12:55:31;36.80;50.20
12426;DHT22;6277;49.824;9.562;2023-06-22T12:57:57;36.90;49.80
12426;DHT22;6277;49.824;9.562;2023-06-22T13:00:22;36.90;49.90
12426;DHT22;6277;49.824;9.562;2023-06-22T13:02:48;36.90;49.90
12426;DHT22;6277;49.824;9.562;2023-06-22T13:05:14;36.90;49.70
12426;DHT22;6277;49.824;9.562;2023-06-22T13:07:40;36.90;49.50
12426;DHT22;6277;49.824;9.562;2023-06-22T13:10:07;36.90;49.40
12426;DHT22;6277;49.824;9.562;2023-06-22T13:12:33;36.80;49.50
12426;DHT22;6277;49.824;9.562;2023-06-22T13:14:59;36.80;49.50
12426;DHT22;6277;49.824;9.562;2023-06-22T13:17:24;36.80;49.60
12426;DHT22;6277;49.824;9.562;2023-06-22T13:19:50;36.90;49.10
12426;DHT22;6277;49.824;9.562;2023-06-22T13:24:52;36.90;47.40
12426;DHT22;6277;49.824;9.562;2023-06-22T13:27:17;36.80;47.90
12426;DHT22;6277;49.824;9.562;2023-06-22T13:29:43;36.80;47.90
12426;DHT22;6277;49.824;9.562;2023-06-22T13:32:08;36.70;48.20
12426;DHT22;6277;49.824;9.562;2023-06-22T13:34:34;36.60;48.50
12426;DHT22;6277;49.824;9.562;2023-06-22T13:36:59;36.60;48.70
12426;DHT22;6277;49.824;9.562;2023-06-22T13:39:25;36.50;48.70
12426;DHT22;6277;49.824;9.562;2023-06-22T13:41:50;36.50;48.90
12426;DHT22;6277;49.824;9.562;2023-06-22T13:44:16;36.40;49.10
12426;DHT22;6277;49.824;9.562;2023-06-22T13:46:42;36.40;49.20
12426;DHT22;6277;49.824;9.562;2023-06-22T13:49:07;36.40;49.20
12426;DHT22;6277;49.824;9.562;2023-06-22T13:51:33;36.30;49.30
12426;DHT22;6277;49.824;9.562;2023-06-22T13:53:58;36.30;49.00
12426;DHT22;6277;49.824;9.562;2023-06-22T13:56:24;36.30;49.20
12426;DHT22;6277;49.824;9.562;2023-06-22T13:58:49;36.20;49.10
12426;DHT22;6277;49.824;9.562;2023-06-22T14:01:15;36.30;49.40
12426;DHT22;6277;49.824;9.562;2023-06-22T14:03:40;36.30;49.10
12426;DHT22;6277;49.824;9.562;2023-06-22T14:06:06;36.30;48.80
12426;DHT22;6277;49.824;9.562;2023-06-22T14:08:31;36.40;48.90
12426;DHT22;6277;49.824;9.562;2023-06-22T14:10:57;36.40;49.30
12426;DHT22;6277;49.824;9.562;2023-06-22T14:13:23;36.50;48.90
12426;DHT22;6277;49.824;9.562;2023-06-22T14:15:48;36.60;49.20
12426;DHT22;6277;49.824;9.562;2023-06-22T14:18:14;36.70;48.70
12426;DHT22;6277;49.824;9.562;2023-06-22T14:20:40;36.70;49.00
12426;DHT22;6277;49.824;9.562;2023-06-22T14:23:06;36.80;48.90
12426;DHT22;6277;49.824;9.562;2023-06-22T14:25:31;37.00;48.90
12426;DHT22;6277;49.824;9.562;2023-06-22T14:27:57;37.30;49.40
12426;DHT22;6277;49.824;9.562;2023-06-22T14:30:22;37.50;49.30
12426;DHT22;6277;49.824;9.562;2023-06-22T14:32:48;37.80;49.10
12426;DHT22;6277;49.824;9.562;2023-06-22T14:35:13;38.00;48.70
12426;DHT22;6277;49.824;9.562;2023-06-22T14:37:39;38.20;48.30
12426;DHT22;6277;49.824;9.562;2023-06-22T14:40:05;38.40;48.20
12426;DHT22;6277;49.824;9.562;2023-06-22T14:42:31;38.50;48.20
12426;DHT22;6277;49.824;9.562;2023-06-22T14:44:56;38.70;47.90
12426;DHT22;6277;49.824;9.562;2023-06-22T14:47:22;38.90;47.70
12426;DHT22;6277;49.824;9.562;2023-06-22T14:49:48;39.20;47.90
12426;DHT22;6277;49.824;9.562;2023-06-22T14:52:13;39.40;47.60
12426;DHT22;6277;49.824;9.562;2023-06-22T14:54:39;39.70;47.50
12426;DHT22;6277;49.824;9.562;2023-06-22T14:57:05;40.10;47.60
12426;DHT22;6277;49.824;9.562;2023-06-22T14:59:30;40.40;47.30
12426;DHT22;6277;49.824;9.562;2023-06-22T15:01:56;40.70;46.50
12426;DHT22;6277;49.824;9.562;2023-06-22T15:04:22;40.90;45.90
12426;DHT22;6277;49.824;9.562;2023-06-22T15:06:47;41.10;45.50
12426;DHT22;6277;49.824;9.562;2023-06-22T15:09:13;41.10;44.70
12426;DHT22;6277;49.824;9.562;2023-06-22T15:11:39;41.00;44.50
12426;DHT22;6277;49.824;9.562;2023-06-22T15:14:04;41.00;43.90
12426;DHT22;6277;49.824;9.562;2023-06-22T15:16:30;40.90;43.90
12426;DHT22;6277;49.824;9.562;2023-06-22T15:18:55;40.60;43.70
12426;DHT22;6277;49.824;9.562;2023-06-22T15:21:21;40.40;43.50
12426;DHT22;6277;49.824;9.562;2023-06-22T15:23:47;40.10;43.30
12426;DHT22;6277;49.824;9.562;2023-06-22T15:26:12;39.90;43.70
12426;DHT22;6277;49.824;9.562;2023-06-22T15:28:39;39.60;43.40
12426;DHT22;6277;49.824;9.562;2023-06-22T15:31:05;39.40;42.90
12426;DHT22;6277;49.824;9.562;2023-06-22T15:33:31;39.10;43.50
12426;DHT22;6277;49.824;9.562;2023-06-22T15:35:57;38.80;44.00
12426;DHT22;6277;49.824;9.562;2023-06-22T15:38:23;38.60;44.20
12426;DHT22;6277;49.824;9.562;2023-06-22T15:40:48;38.50;44.70
12426;DHT22;6277;49.824;9.562;2023-06-22T15:43:14;38.40;44.60
12426;DHT22;6277;49.824;9.562;2023-06-22T15:45:40;38.20;44.40
12426;DHT22;6277;49.824;9.562;2023-06-22T15:48:06;38.10;44.30
12426;DHT22;6277;49.824;9.562;2023-06-22T15:50:31;37.90;44.50
12426;DHT22;6277;49.824;9.562;2023-06-22T15:52:57;37.70;44.40